createdAt,value
2023-03-02T00:04:39.362Z,10.83
2023-03-02T00:09:45.255Z,10.27
2023-03-02T00:14:49.724Z,11.60
2023-03-02T00:19:52.785Z,14.00
2023-03-02T00:24:55.804Z,14.20
2023-03-02T00:30:00.383Z,16.27
2023-03-02T00:35:06.547Z,17.90
2023-03-02T00:40:11.528Z,19.17
2023-03-02T00:45:15.793Z,19.83
2023-03-02T00:50:18.921Z,19.63
2023-03-02T00:55:21.917Z,18.63
2023-03-02T01:00:28.422Z,26.20
2023-03-02T01:05:37.915Z,26.13
2023-03-02T01:10:41.385Z,28.10
2023-03-02T01:15:45.874Z,29.50
2023-03-02T01:20:48.875Z,28.67
2023-03-02T01:25:52.188Z,31.53
2023-03-02T01:30:56.588Z,29.03
2023-03-02T01:35:59.694Z,35.73
2023-03-02T01:41:04.809Z,36.30
2023-03-02T01:46:14.688Z,36.97
2023-03-02T01:51:25.109Z,41.43
2023-03-02T01:56:34.734Z,39.90
2023-03-02T02:01:42.681Z,38.60
2023-03-02T02:06:49.929Z,44.63
2023-03-02T02:11:53.494Z,38.70
2023-03-02T02:16:58.136Z,40.00
2023-03-02T02:22:01.422Z,39.87
2023-03-02T02:27:05.912Z,44.17
2023-03-02T02:32:16.452Z,42.77
2023-03-02T02:37:27.276Z,41.73
2023-03-02T02:42:36.163Z,46.37
2023-03-02T02:47:39.756Z,45.23
2023-03-02T02:52:43.327Z,47.97
2023-03-02T02:57:48.620Z,48.63
2023-03-02T03:02:57.438Z,40.73
2023-03-02T03:08:11.677Z,40.23
2023-03-02T03:13:16.904Z,46.97
2023-03-02T03:18:24.160Z,45.83
2023-03-02T03:23:28.032Z,44.00
2023-03-02T03:28:32.679Z,42.53
2023-03-02T03:33:36.154Z,39.83
2023-03-02T03:38:39.419Z,43.53
2023-03-02T03:43:43.981Z,42.20
2023-03-02T03:48:47.555Z,43.13
2023-03-02T03:54:00.006Z,41.70
2023-03-02T03:59:11.357Z,38.23
2023-03-02T04:04:22.372Z,40.07
2023-03-02T04:09:26.705Z,39.63
2023-03-02T04:14:32.026Z,36.47
2023-03-02T04:19:37.436Z,40.17
2023-03-02T04:24:41.170Z,39.83
2023-03-02T04:29:46.427Z,38.63
2023-03-02T04:34:50.151Z,40.33
2023-03-02T04:39:53.504Z,39.27
2023-03-02T04:44:57.824Z,37.10
2023-03-02T04:50:01.292Z,37.97
2023-03-02T04:55:05.353Z,35.17
2023-03-02T05:00:12.909Z,39.20
2023-03-02T05:05:18.102Z,37.37
2023-03-02T05:10:22.548Z,36.07
2023-03-02T05:15:29.888Z,33.10
2023-03-02T05:20:32.933Z,37.67
2023-03-02T05:25:38.275Z,35.43
2023-03-02T05:30:42.724Z,37.70
2023-03-02T05:35:45.941Z,31.57
2023-03-02T05:40:49.480Z,38.60
2023-03-02T05:45:56.028Z,33.60
2023-03-02T05:50:59.796Z,35.83
2023-03-02T05:56:04.529Z,33.83
2023-03-02T06:01:15.137Z,36.50
2023-03-02T06:06:18.839Z,35.17
2023-03-02T06:11:21.860Z,35.97
2023-03-02T06:16:26.249Z,42.27
2023-03-02T06:21:31.826Z,34.87
2023-03-02T06:26:35.058Z,38.07
2023-03-02T06:31:39.958Z,36.57
2023-03-02T06:36:46.083Z,35.17
2023-03-02T06:41:50.381Z,36.30
2023-03-02T06:46:54.922Z,34.53
2023-03-02T06:51:58.064Z,36.20
2023-03-02T06:57:01.259Z,36.27
2023-03-02T07:02:08.420Z,33.67
2023-03-02T07:07:11.409Z,35.67
2023-03-02T07:12:15.022Z,32.67
2023-03-02T07:17:21.072Z,36.00
2023-03-02T07:22:24.311Z,33.10
2023-03-02T07:27:27.345Z,33.17
2023-03-02T07:32:31.799Z,33.57
2023-03-02T07:37:35.147Z,33.73
2023-03-02T07:42:38.623Z,33.77
2023-03-02T07:47:44.153Z,36.13
2023-03-02T07:52:47.178Z,30.30
2023-03-02T07:57:50.378Z,29.77
2023-03-02T08:02:54.800Z,28.03
2023-03-02T08:07:57.798Z,26.03
2023-03-02T08:13:00.873Z,28.50
2023-03-02T08:18:05.912Z,26.40
2023-03-02T08:23:08.904Z,31.70
2023-03-02T08:28:12.302Z,28.87
2023-03-02T08:33:16.972Z,30.27
2023-03-02T08:38:20.012Z,28.83
2023-03-02T08:43:25.197Z,28.20
2023-03-02T08:48:30.202Z,27.50
2023-03-02T08:53:36.425Z,28.33
2023-03-02T08:58:39.627Z,26.90
2023-03-02T09:03:44.104Z,31.73
2023-03-02T09:08:47.246Z,25.77
2023-03-02T09:13:50.343Z,29.33
2023-03-02T09:18:58.366Z,23.97
2023-03-02T09:24:01.537Z,24.10
2023-03-02T09:29:08.288Z,23.77
2023-03-02T09:34:12.719Z,27.57
2023-03-02T09:39:15.678Z,21.80
2023-03-02T09:44:41.892Z,24.43
2023-03-02T09:49:59.197Z,23.20
2023-03-02T09:55:12.519Z,22.70
2023-03-02T10:00:21.754Z,22.83
2023-03-02T10:05:30.495Z,22.97
2023-03-02T10:10:41.701Z,26.30
2023-03-02T10:15:53.730Z,25.50
2023-03-02T10:21:03.708Z,20.80
2023-03-02T10:26:20.633Z,21.90
2023-03-02T10:31:28.356Z,26.30
2023-03-02T10:36:39.046Z,24.27
2023-03-02T10:41:49.619Z,23.60
2023-03-02T10:46:53.998Z,20.97
2023-03-02T10:52:00.555Z,19.20
2023-03-02T10:57:14.726Z,19.60
2023-03-02T11:02:23.520Z,21.40
2023-03-02T11:07:29.749Z,18.80
2023-03-02T11:12:34.330Z,24.53
2023-03-02T11:17:40.182Z,18.70
2023-03-02T11:22:53.203Z,18.00
2023-03-02T11:28:02.039Z,16.13
2023-03-02T11:33:13.561Z,19.40
2023-03-02T11:38:22.717Z,18.13
2023-03-02T11:43:25.811Z,19.07
2023-03-02T11:48:38.276Z,18.97
2023-03-02T11:53:47.449Z,16.10
2023-03-02T11:58:57.005Z,15.07
2023-03-02T12:04:08.543Z,15.57
2023-03-02T12:09:33.276Z,15.30
2023-03-02T12:14:40.147Z,16.20
2023-03-02T12:19:46.886Z,13.63
2023-03-02T12:25:04.933Z,16.20
2023-03-02T12:30:26.215Z,12.60
2023-03-02T12:35:32.005Z,12.40
2023-03-02T12:40:59.196Z,15.73
2023-03-02T12:46:27.496Z,11.00
2023-03-02T12:51:33.879Z,13.10
2023-03-02T12:56:38.415Z,12.13
2023-03-02T13:01:41.486Z,12.07
2023-03-02T13:06:44.744Z,11.73
2023-03-02T13:11:54.907Z,11.23
2023-03-02T13:16:59.801Z,12.03
2023-03-02T13:22:10.406Z,12.63
2023-03-02T13:27:19.952Z,10.13
2023-03-02T13:32:26.062Z,11.17
2023-03-02T13:37:39.209Z,9.83
2023-03-02T13:42:44.021Z,11.07
2023-03-02T13:47:47.061Z,13.67
2023-03-02T13:52:51.050Z,8.17
2023-03-02T13:57:56.672Z,11.37
2023-03-02T14:03:00.152Z,11.10
2023-03-02T14:08:06.043Z,8.17
2023-03-02T14:13:15.994Z,9.10
2023-03-02T14:18:29.339Z,13.73
2023-03-02T14:23:32.640Z,7.27
2023-03-02T14:28:37.224Z,7.97
2023-03-02T14:33:40.398Z,7.40
2023-03-02T14:38:44.053Z,9.50
2023-03-02T14:43:48.901Z,7.43
2023-03-02T14:48:51.892Z,14.57
2023-03-02T14:53:58.708Z,10.87
2023-03-02T14:59:06.530Z,10.17
2023-03-02T15:04:09.571Z,7.73
2023-03-02T15:09:12.868Z,7.13
2023-03-02T15:14:19.174Z,6.97
2023-03-02T15:19:22.185Z,8.23
2023-03-02T15:24:26.504Z,12.53
2023-03-02T15:29:31.280Z,11.87
2023-03-02T15:34:36.585Z,12.00
2023-03-02T15:39:39.960Z,14.80
2023-03-02T15:44:44.753Z,11.13
2023-03-02T15:49:47.765Z,16.00
2023-03-02T15:54:51.115Z,11.93
2023-03-02T15:59:55.528Z,10.50
2023-03-02T16:04:58.478Z,13.67
2023-03-02T16:10:01.788Z,10.73
2023-03-02T16:15:10.419Z,10.73
2023-03-02T16:20:16.482Z,11.07
2023-03-02T16:25:20.105Z,10.33
2023-03-02T16:30:25.123Z,12.90
2023-03-02T16:35:29.514Z,11.87
2023-03-02T16:40:38.896Z,12.43
2023-03-02T16:45:43.335Z,13.97
2023-03-02T16:50:46.407Z,12.30
2023-03-02T16:55:50.226Z,12.07
2023-03-02T17:00:55.154Z,12.27
2023-03-02T17:05:58.832Z,11.73
2023-03-02T17:11:03.835Z,15.47
2023-03-02T17:16:08.652Z,12.13
2023-03-02T17:21:11.707Z,13.90
2023-03-02T17:26:14.942Z,14.37
2023-03-02T17:31:19.421Z,18.93
2023-03-02T17:36:24.722Z,15.13
2023-03-02T17:41:28.051Z,14.57
2023-03-02T17:46:36.133Z,15.40
2023-03-02T17:51:39.506Z,14.50
2023-03-02T17:56:42.570Z,15.90
2023-03-02T18:01:46.992Z,16.57
2023-03-02T18:06:52.397Z,17.97
2023-03-02T18:11:57.057Z,18.73
2023-03-02T18:17:03.812Z,16.07
2023-03-02T18:22:06.810Z,17.40
2023-03-02T18:27:09.722Z,19.67
2023-03-02T18:32:18.553Z,17.07
2023-03-02T18:37:21.638Z,16.07
2023-03-02T18:42:25.034Z,15.37
2023-03-02T18:47:30.351Z,15.40
2023-03-02T18:52:35.149Z,16.63
2023-03-02T18:57:38.933Z,12.40
2023-03-02T19:02:43.619Z,15.30
2023-03-02T19:07:47.200Z,14.27
2023-03-02T19:12:50.653Z,14.50
2023-03-02T19:17:55.162Z,18.07
2023-03-02T19:22:58.127Z,14.67
2023-03-02T19:28:01.271Z,15.00
2023-03-02T19:33:09.948Z,14.20
2023-03-02T19:38:13.408Z,13.33
2023-03-02T19:43:16.579Z,16.70
2023-03-02T19:48:21.450Z,14.77
2023-03-02T19:53:24.465Z,13.03
2023-03-02T19:58:28.564Z,13.77
2023-03-02T20:03:37.727Z,16.33
2023-03-02T20:08:41.074Z,18.87
2023-03-02T20:13:44.206Z,14.03
2023-03-02T20:18:50.583Z,15.67
2023-03-02T20:23:54.436Z,17.27
2023-03-02T20:28:58.754Z,14.23
2023-03-02T20:34:05.248Z,17.87
2023-03-02T20:39:11.278Z,18.40
2023-03-02T20:44:14.951Z,18.63
2023-03-02T20:49:20.127Z,18.17
2023-03-02T20:54:24.969Z,16.50
2023-03-02T20:59:29.277Z,16.80
2023-03-02T21:04:36.150Z,18.53
2023-03-02T21:09:40.214Z,17.27
2023-03-02T21:14:46.120Z,21.13
2023-03-02T21:19:50.675Z,21.27
2023-03-02T21:24:53.976Z,17.93
2023-03-02T21:29:57.110Z,15.60
2023-03-02T21:35:02.828Z,18.83
2023-03-02T21:40:07.153Z,19.27
2023-03-02T21:45:11.721Z,18.97
2023-03-02T21:50:18.986Z,19.73
2023-03-02T21:55:22.194Z,20.37
2023-03-02T22:00:29.735Z,22.50
2023-03-02T22:05:35.251Z,19.80
2023-03-02T22:10:41.912Z,24.63
2023-03-02T22:15:46.275Z,23.43
2023-03-02T22:20:52.798Z,22.87
2023-03-02T22:26:16.237Z,21.10
2023-03-02T22:31:21.798Z,24.60
2023-03-02T22:36:26.386Z,23.63
2023-03-02T22:41:29.364Z,26.00
2023-03-02T22:46:35.574Z,26.87
2023-03-02T22:51:40.084Z,26.87
2023-03-02T22:56:47.400Z,26.87
2023-03-02T23:01:50.612Z,26.20
2023-03-02T23:06:56.813Z,25.13
2023-03-02T23:12:05.258Z,27.63
2023-03-02T23:17:14.738Z,31.17
2023-03-02T23:22:19.999Z,30.60
2023-03-02T23:27:24.485Z,25.30
2023-03-02T23:32:27.572Z,28.67
2023-03-02T23:37:32.542Z,36.10
2023-03-02T23:42:35.721Z,31.90
2023-03-02T23:47:38.669Z,25.80
2023-03-02T23:52:43.030Z,31.70
2023-03-02T23:57:46.108Z,28.73
